Terminal Aerodrome Forecast
Issued by NWS

Home | Current Version | Previous Version | Text Only | Print | Product List | Glossary On
Versions: 1 2 3 4 5 6 7 8 9 10 11 12 13 14 15 16 17
527
FTUS42 KMLB 262338
TAFSFB
TAF
KSFB 262338Z 2700/2724 09006KT P6SM SKC
     FM270200 VRB03KT P6SM SKC
     FM271500 20005KT P6SM SKC
     FM271800 23007KT P6SM SKC=

USA.gov is the U.S. government's official web portal to all federal, state and local government web resources and services.